sensor_id;sensor_type;location;lat;lon;timestamp;P1;durP1;ratioP1;P2;durP2;ratioP2
66946;SDS011;53853;51.982;5.928;2022-10-16T00:01:58;3.95;;;1.70;;
66946;SDS011;53853;51.982;5.928;2022-10-16T00:04:31;2.75;;;1.42;;
66946;SDS011;53853;51.982;5.928;2022-10-16T00:07:01;3.30;;;1.65;;
66946;SDS011;53853;51.982;5.928;2022-10-16T00:09:31;5.13;;;1.77;;
66946;SDS011;53853;51.982;5.928;2022-10-16T00:12:00;3.25;;;1.48;;
66946;SDS011;53853;51.982;5.928;2022-10-16T00:14:32;2.97;;;2.05;;
66946;SDS011;53853;51.982;5.928;2022-10-16T00:17:02;3.78;;;2.05;;
66946;SDS011;53853;51.982;5.928;2022-10-16T00:19:34;4.53;;;1.77;;
66946;SDS011;53853;51.982;5.928;2022-10-16T00:22:04;4.13;;;1.80;;
66946;SDS011;53853;51.982;5.928;2022-10-16T00:24:34;4.25;;;1.85;;
66946;SDS011;53853;51.982;5.928;2022-10-16T00:27:04;4.80;;;2.10;;
66946;SDS011;53853;51.982;5.928;2022-10-16T00:29:34;2.90;;;1.80;;
66946;SDS011;53853;51.982;5.928;2022-10-16T00:32:04;2.53;;;1.60;;
66946;SDS011;53853;51.982;5.928;2022-10-16T00:34:36;3.67;;;1.90;;
66946;SDS011;53853;51.982;5.928;2022-10-16T00:37:06;3.95;;;2.28;;
66946;SDS011;53853;51.982;5.928;2022-10-16T00:39:36;4.68;;;2.60;;
66946;SDS011;53853;51.982;5.928;2022-10-16T00:42:06;3.85;;;1.83;;
66946;SDS011;53853;51.982;5.928;2022-10-16T00:44:46;3.00;;;1.85;;
66946;SDS011;53853;51.982;5.928;2022-10-16T00:47:19;7.18;;;1.98;;
66946;SDS011;53853;51.982;5.928;2022-10-16T00:49:56;5.55;;;2.70;;
66946;SDS011;53853;51.982;5.928;2022-10-16T00:52:31;5.63;;;2.47;;
66946;SDS011;53853;51.982;5.928;2022-10-16T00:55:01;4.95;;;2.28;;
66946;SDS011;53853;51.982;5.928;2022-10-16T00:57:33;3.95;;;2.50;;
66946;SDS011;53853;51.982;5.928;2022-10-16T01:00:03;4.00;;;2.60;;
66946;SDS011;53853;51.982;5.928;2022-10-16T01:02:36;3.80;;;2.45;;
66946;SDS011;53853;51.982;5.928;2022-10-16T01:05:08;3.80;;;2.28;;
66946;SDS011;53853;51.982;5.928;2022-10-16T01:07:41;4.50;;;2.95;;
66946;SDS011;53853;51.982;5.928;2022-10-16T01:10:22;5.15;;;2.13;;
66946;SDS011;53853;51.982;5.928;2022-10-16T01:13:01;3.65;;;2.22;;
66946;SDS011;53853;51.982;5.928;2022-10-16T01:15:35;4.00;;;2.08;;
66946;SDS011;53853;51.982;5.928;2022-10-16T01:18:11;4.97;;;2.10;;
66946;SDS011;53853;51.982;5.928;2022-10-16T01:20:49;4.70;;;2.53;;
66946;SDS011;53853;51.982;5.928;2022-10-16T01:23:27;4.50;;;2.40;;
66946;SDS011;53853;51.982;5.928;2022-10-16T01:26:10;3.13;;;2.05;;
66946;SDS011;53853;51.982;5.928;2022-10-16T01:28:52;4.50;;;2.53;;
66946;SDS011;53853;51.982;5.928;2022-10-16T01:31:27;3.70;;;2.38;;
66946;SDS011;53853;51.982;5.928;2022-10-16T01:34:02;5.20;;;2.50;;
66946;SDS011;53853;51.982;5.928;2022-10-16T01:36:36;3.10;;;2.22;;
66946;SDS011;53853;51.982;5.928;2022-10-16T01:39:09;4.75;;;2.58;;
66946;SDS011;53853;51.982;5.928;2022-10-16T01:41:43;4.78;;;3.40;;
66946;SDS011;53853;51.982;5.928;2022-10-16T01:44:20;3.80;;;2.10;;
66946;SDS011;53853;51.982;5.928;2022-10-16T01:46:54;4.93;;;3.00;;
66946;SDS011;53853;51.982;5.928;2022-10-16T01:49:25;5.72;;;2.63;;
66946;SDS011;53853;51.982;5.928;2022-10-16T01:51:58;3.58;;;2.30;;
66946;SDS011;53853;51.982;5.928;2022-10-16T01:57:03;4.28;;;2.35;;
66946;SDS011;53853;51.982;5.928;2022-10-16T01:59:41;2.53;;;1.95;;
66946;SDS011;53853;51.982;5.928;2022-10-16T02:02:14;3.97;;;2.45;;
66946;SDS011;53853;51.982;5.928;2022-10-16T02:04:47;6.07;;;2.80;;
66946;SDS011;53853;51.982;5.928;2022-10-16T02:07:23;3.53;;;2.03;;
66946;SDS011;53853;51.982;5.928;2022-10-16T02:09:53;7.30;;;2.80;;
66946;SDS011;53853;51.982;5.928;2022-10-16T02:12:25;3.58;;;1.95;;
66946;SDS011;53853;51.982;5.928;2022-10-16T02:14:59;3.83;;;2.45;;
66946;SDS011;53853;51.982;5.928;2022-10-16T02:17:29;3.08;;;1.85;;
66946;SDS011;53853;51.982;5.928;2022-10-16T02:19:59;3.08;;;1.90;;
66946;SDS011;53853;51.982;5.928;2022-10-16T02:22:32;4.82;;;2.35;;
66946;SDS011;53853;51.982;5.928;2022-10-16T02:25:06;3.38;;;1.90;;
66946;SDS011;53853;51.982;5.928;2022-10-16T02:27:40;6.07;;;2.80;;
66946;SDS011;53853;51.982;5.928;2022-10-16T02:30:19;3.15;;;1.95;;
66946;SDS011;53853;51.982;5.928;2022-10-16T02:32:53;5.32;;;2.55;;
66946;SDS011;53853;51.982;5.928;2022-10-16T02:35:26;4.05;;;1.85;;
66946;SDS011;53853;51.982;5.928;2022-10-16T02:37:58;2.95;;;2.20;;
66946;SDS011;53853;51.982;5.928;2022-10-16T02:40:29;3.15;;;1.70;;
66946;SDS011;53853;51.982;5.928;2022-10-16T02:42:59;2.65;;;1.60;;
66946;SDS011;53853;51.982;5.928;2022-10-16T02:45:34;2.08;;;1.27;;
66946;SDS011;53853;51.982;5.928;2022-10-16T02:48:04;2.30;;;1.30;;
66946;SDS011;53853;51.982;5.928;2022-10-16T02:50:34;2.63;;;1.55;;
66946;SDS011;53853;51.982;5.928;2022-10-16T02:53:04;2.40;;;1.30;;
66946;SDS011;53853;51.982;5.928;2022-10-16T02:55:34;2.30;;;1.38;;
66946;SDS011;53853;51.982;5.928;2022-10-16T02:58:04;3.20;;;1.60;;
66946;SDS011;53853;51.982;5.928;2022-10-16T03:00:36;2.85;;;1.77;;
66946;SDS011;53853;51.982;5.928;2022-10-16T03:03:06;3.13;;;1.70;;
66946;SDS011;53853;51.982;5.928;2022-10-16T03:05:36;4.78;;;2.05;;
66946;SDS011;53853;51.982;5.928;2022-10-16T03:08:05;3.55;;;1.80;;
66946;SDS011;53853;51.982;5.928;2022-10-16T03:10:35;2.53;;;1.30;;
66946;SDS011;53853;51.982;5.928;2022-10-16T03:13:05;3.88;;;1.90;;
66946;SDS011;53853;51.982;5.928;2022-10-16T03:15:38;3.70;;;2.55;;
66946;SDS011;53853;51.982;5.928;2022-10-16T03:18:08;3.20;;;1.92;;
66946;SDS011;53853;51.982;5.928;2022-10-16T03:20:37;4.00;;;2.45;;
66946;SDS011;53853;51.982;5.928;2022-10-16T03:23:07;4.93;;;2.70;;
66946;SDS011;53853;51.982;5.928;2022-10-16T03:25:37;4.18;;;2.00;;
66946;SDS011;53853;51.982;5.928;2022-10-16T03:28:07;3.72;;;2.00;;
66946;SDS011;53853;51.982;5.928;2022-10-16T03:30:40;3.70;;;2.25;;
66946;SDS011;53853;51.982;5.928;2022-10-16T03:33:11;3.80;;;2.20;;
66946;SDS011;53853;51.982;5.928;2022-10-16T03:35:41;3.05;;;2.10;;
66946;SDS011;53853;51.982;5.928;2022-10-16T03:38:11;3.33;;;2.03;;
66946;SDS011;53853;51.982;5.928;2022-10-16T03:40:41;4.35;;;2.70;;
66946;SDS011;53853;51.982;5.928;2022-10-16T03:43:10;4.28;;;2.00;;
66946;SDS011;53853;51.982;5.928;2022-10-16T03:45:43;3.03;;;2.15;;
66946;SDS011;53853;51.982;5.928;2022-10-16T03:48:13;3.95;;;2.60;;
66946;SDS011;53853;51.982;5.928;2022-10-16T03:50:42;3.35;;;1.95;;
66946;SDS011;53853;51.982;5.928;2022-10-16T03:53:13;3.63;;;2.25;;
66946;SDS011;53853;51.982;5.928;2022-10-16T03:55:44;2.80;;;1.90;;
66946;SDS011;53853;51.982;5.928;2022-10-16T03:58:14;4.57;;;1.90;;
66946;SDS011;53853;51.982;5.928;2022-10-16T04:00:48;3.97;;;1.80;;
66946;SDS011;53853;51.982;5.928;2022-10-16T04:03:18;2.97;;;1.65;;
66946;SDS011;53853;51.982;5.928;2022-10-16T04:05:48;2.72;;;1.73;;
66946;SDS011;53853;51.982;5.928;2022-10-16T04:08:19;1.98;;;1.30;;
66946;SDS011;53853;51.982;5.928;2022-10-16T04:10:49;2.38;;;1.30;;
66946;SDS011;53853;51.982;5.928;2022-10-16T04:13:18;2.22;;;1.20;;
66946;SDS011;53853;51.982;5.928;2022-10-16T04:15:51;3.72;;;2.10;;
66946;SDS011;53853;51.982;5.928;2022-10-16T04:18:21;1.73;;;1.00;;
66946;SDS011;53853;51.982;5.928;2022-10-16T04:20:53;2.70;;;1.15;;
66946;SDS011;53853;51.982;5.928;2022-10-16T04:23:23;3.35;;;1.48;;
66946;SDS011;53853;51.982;5.928;2022-10-16T04:25:52;3.80;;;1.75;;
66946;SDS011;53853;51.982;5.928;2022-10-16T04:28:22;2.72;;;2.30;;
66946;SDS011;53853;51.982;5.928;2022-10-16T04:30:55;3.88;;;1.95;;
66946;SDS011;53853;51.982;5.928;2022-10-16T04:33:25;3.00;;;1.52;;
66946;SDS011;53853;51.982;5.928;2022-10-16T04:35:57;2.40;;;1.40;;
66946;SDS011;53853;51.982;5.928;2022-10-16T04:38:29;3.60;;;2.00;;
66946;SDS011;53853;51.982;5.928;2022-10-16T04:40:59;3.72;;;1.42;;
66946;SDS011;53853;51.982;5.928;2022-10-16T04:43:29;4.45;;;1.60;;
66946;SDS011;53853;51.982;5.928;2022-10-16T04:46:01;5.70;;;2.47;;
66946;SDS011;53853;51.982;5.928;2022-10-16T04:48:31;3.88;;;2.17;;
66946;SDS011;53853;51.982;5.928;2022-10-16T04:51:01;3.45;;;2.00;;
66946;SDS011;53853;51.982;5.928;2022-10-16T04:53:31;2.70;;;1.70;;
66946;SDS011;53853;51.982;5.928;2022-10-16T04:56:02;5.20;;;2.25;;
66946;SDS011;53853;51.982;5.928;2022-10-16T04:58:32;3.00;;;1.75;;
66946;SDS011;53853;51.982;5.928;2022-10-16T05:01:04;3.63;;;2.20;;
66946;SDS011;53853;51.982;5.928;2022-10-16T05:03:34;5.10;;;1.95;;
66946;SDS011;53853;51.982;5.928;2022-10-16T05:06:04;3.28;;;2.00;;
66946;SDS011;53853;51.982;5.928;2022-10-16T05:08:35;5.53;;;2.40;;
66946;SDS011;53853;51.982;5.928;2022-10-16T05:11:05;2.33;;;1.85;;
66946;SDS011;53853;51.982;5.928;2022-10-16T05:13:34;2.97;;;1.65;;
66946;SDS011;53853;51.982;5.928;2022-10-16T05:16:07;4.65;;;2.10;;
66946;SDS011;53853;51.982;5.928;2022-10-16T05:18:37;2.85;;;1.98;;
66946;SDS011;53853;51.982;5.928;2022-10-16T05:21:07;3.33;;;1.75;;
66946;SDS011;53853;51.982;5.928;2022-10-16T05:23:37;2.63;;;1.50;;
66946;SDS011;53853;51.982;5.928;2022-10-16T05:26:07;2.72;;;1.42;;
66946;SDS011;53853;51.982;5.928;2022-10-16T05:28:37;3.95;;;2.00;;
66946;SDS011;53853;51.982;5.928;2022-10-16T05:31:09;3.95;;;2.15;;
66946;SDS011;53853;51.982;5.928;2022-10-16T05:33:39;3.30;;;1.92;;
66946;SDS011;53853;51.982;5.928;2022-10-16T05:36:10;3.20;;;2.03;;
66946;SDS011;53853;51.982;5.928;2022-10-16T05:38:40;3.13;;;1.30;;
66946;SDS011;53853;51.982;5.928;2022-10-16T05:41:10;4.20;;;2.03;;
66946;SDS011;53853;51.982;5.928;2022-10-16T05:43:40;3.13;;;1.98;;
66946;SDS011;53853;51.982;5.928;2022-10-16T05:46:12;4.18;;;2.13;;
66946;SDS011;53853;51.982;5.928;2022-10-16T05:48:42;3.28;;;1.92;;
66946;SDS011;53853;51.982;5.928;2022-10-16T05:51:13;3.05;;;1.83;;
66946;SDS011;53853;51.982;5.928;2022-10-16T05:53:43;7.82;;;3.17;;
66946;SDS011;53853;51.982;5.928;2022-10-16T05:56:13;6.00;;;2.45;;
66946;SDS011;53853;51.982;5.928;2022-10-16T05:58:43;4.07;;;2.00;;
66946;SDS011;53853;51.982;5.928;2022-10-16T06:01:17;3.63;;;2.47;;
66946;SDS011;53853;51.982;5.928;2022-10-16T06:03:49;4.25;;;2.45;;
66946;SDS011;53853;51.982;5.928;2022-10-16T06:06:21;3.35;;;2.15;;
66946;SDS011;53853;51.982;5.928;2022-10-16T06:08:52;4.63;;;2.03;;
66946;SDS011;53853;51.982;5.928;2022-10-16T06:11:23;3.00;;;2.15;;
66946;SDS011;53853;51.982;5.928;2022-10-16T06:13:55;2.67;;;2.13;;
66946;SDS011;53853;51.982;5.928;2022-10-16T06:16:30;4.35;;;1.83;;
66946;SDS011;53853;51.982;5.928;2022-10-16T06:19:00;3.08;;;1.88;;
66946;SDS011;53853;51.982;5.928;2022-10-16T06:21:31;4.07;;;1.85;;
66946;SDS011;53853;51.982;5.928;2022-10-16T06:24:01;3.97;;;2.17;;
66946;SDS011;53853;51.982;5.928;2022-10-16T06:26:32;5.22;;;2.25;;
66946;SDS011;53853;51.982;5.928;2022-10-16T06:29:02;2.90;;;2.10;;
66946;SDS011;53853;51.982;5.928;2022-10-16T06:31:34;3.42;;;2.45;;
66946;SDS011;53853;51.982;5.928;2022-10-16T06:34:04;3.70;;;1.77;;
66946;SDS011;53853;51.982;5.928;2022-10-16T06:36:36;4.35;;;1.80;;
66946;SDS011;53853;51.982;5.928;2022-10-16T06:39:06;5.43;;;2.70;;
66946;SDS011;53853;51.982;5.928;2022-10-16T06:41:36;2.97;;;1.85;;
66946;SDS011;53853;51.982;5.928;2022-10-16T06:44:15;3.65;;;2.15;;
66946;SDS011;53853;51.982;5.928;2022-10-16T06:46:48;3.55;;;2.33;;
66946;SDS011;53853;51.982;5.928;2022-10-16T06:49:18;2.40;;;1.60;;
66946;SDS011;53853;51.982;5.928;2022-10-16T06:51:48;4.70;;;2.28;;
66946;SDS011;53853;51.982;5.928;2022-10-16T06:54:18;3.97;;;1.83;;
66946;SDS011;53853;51.982;5.928;2022-10-16T06:56:48;3.65;;;2.38;;
66946;SDS011;53853;51.982;5.928;2022-10-16T06:59:20;5.50;;;2.83;;
66946;SDS011;53853;51.982;5.928;2022-10-16T07:01:52;3.60;;;2.08;;
66946;SDS011;53853;51.982;5.928;2022-10-16T07:04:22;2.67;;;1.70;;
66946;SDS011;53853;51.982;5.928;2022-10-16T07:06:52;6.72;;;2.55;;
66946;SDS011;53853;51.982;5.928;2022-10-16T07:09:22;3.38;;;1.85;;
66946;SDS011;53853;51.982;5.928;2022-10-16T07:11:52;3.42;;;2.40;;
66946;SDS011;53853;51.982;5.928;2022-10-16T07:14:22;4.20;;;2.53;;
66946;SDS011;53853;51.982;5.928;2022-10-16T07:16:54;4.60;;;2.47;;
66946;SDS011;53853;51.982;5.928;2022-10-16T07:19:25;6.85;;;2.92;;
66946;SDS011;53853;51.982;5.928;2022-10-16T07:21:54;4.25;;;1.67;;
66946;SDS011;53853;51.982;5.928;2022-10-16T07:24:25;3.92;;;1.70;;
66946;SDS011;53853;51.982;5.928;2022-10-16T07:26:54;4.03;;;2.38;;
66946;SDS011;53853;51.982;5.928;2022-10-16T07:29:24;6.28;;;2.05;;
66946;SDS011;53853;51.982;5.928;2022-10-16T07:31:57;3.70;;;2.40;;
66946;SDS011;53853;51.982;5.928;2022-10-16T07:34:27;3.10;;;1.90;;
66946;SDS011;53853;51.982;5.928;2022-10-16T07:36:56;4.75;;;2.30;;
66946;SDS011;53853;51.982;5.928;2022-10-16T07:39:26;5.35;;;2.30;;
66946;SDS011;53853;51.982;5.928;2022-10-16T07:41:56;4.85;;;2.22;;
66946;SDS011;53853;51.982;5.928;2022-10-16T07:44:26;5.40;;;2.30;;
66946;SDS011;53853;51.982;5.928;2022-10-16T07:46:58;5.18;;;1.95;;
66946;SDS011;53853;51.982;5.928;2022-10-16T07:49:28;4.85;;;2.17;;
66946;SDS011;53853;51.982;5.928;2022-10-16T07:51:58;3.88;;;2.10;;
66946;SDS011;53853;51.982;5.928;2022-10-16T07:54:28;6.20;;;2.70;;
66946;SDS011;53853;51.982;5.928;2022-10-16T07:56:58;5.18;;;2.40;;
66946;SDS011;53853;51.982;5.928;2022-10-16T07:59:28;4.93;;;2.47;;
66946;SDS011;53853;51.982;5.928;2022-10-16T08:02:00;9.73;;;2.65;;
66946;SDS011;53853;51.982;5.928;2022-10-16T08:04:30;8.05;;;2.22;;
66946;SDS011;53853;51.982;5.928;2022-10-16T08:07:00;5.30;;;1.90;;
66946;SDS011;53853;51.982;5.928;2022-10-16T08:09:30;5.60;;;2.70;;
66946;SDS011;53853;51.982;5.928;2022-10-16T08:11:59;6.53;;;2.97;;
66946;SDS011;53853;51.982;5.928;2022-10-16T08:14:30;4.75;;;2.30;;
66946;SDS011;53853;51.982;5.928;2022-10-16T08:17:02;4.93;;;1.90;;
66946;SDS011;53853;51.982;5.928;2022-10-16T08:19:32;7.80;;;2.50;;
66946;SDS011;53853;51.982;5.928;2022-10-16T08:22:02;6.05;;;2.72;;
66946;SDS011;53853;51.982;5.928;2022-10-16T08:24:32;5.47;;;2.55;;
66946;SDS011;53853;51.982;5.928;2022-10-16T08:27:02;5.75;;;2.97;;
66946;SDS011;53853;51.982;5.928;2022-10-16T08:29:32;5.35;;;2.20;;
66946;SDS011;53853;51.982;5.928;2022-10-16T08:32:06;7.85;;;2.92;;
66946;SDS011;53853;51.982;5.928;2022-10-16T08:34:35;6.30;;;2.50;;
66946;SDS011;53853;51.982;5.928;2022-10-16T08:37:05;4.57;;;2.50;;
66946;SDS011;53853;51.982;5.928;2022-10-16T08:39:36;7.80;;;2.72;;
66946;SDS011;53853;51.982;5.928;2022-10-16T08:42:11;5.65;;;2.22;;
66946;SDS011;53853;51.982;5.928;2022-10-16T08:45:08;4.75;;;2.15;;
66946;SDS011;53853;51.982;5.928;2022-10-16T08:48:00;5.78;;;1.70;;
66946;SDS011;53853;51.982;5.928;2022-10-16T08:50:38;4.55;;;2.47;;
66946;SDS011;53853;51.982;5.928;2022-10-16T08:53:10;7.13;;;2.10;;
66946;SDS011;53853;51.982;5.928;2022-10-16T08:55:49;5.40;;;2.58;;
66946;SDS011;53853;51.982;5.928;2022-10-16T08:58:21;5.78;;;2.30;;
66946;SDS011;53853;51.982;5.928;2022-10-16T09:00:55;8.85;;;2.50;;
66946;SDS011;53853;51.982;5.928;2022-10-16T09:03:38;6.63;;;2.35;;
66946;SDS011;53853;51.982;5.928;2022-10-16T09:06:31;7.40;;;2.50;;
66946;SDS011;53853;51.982;5.928;2022-10-16T09:09:18;5.70;;;2.28;;
66946;SDS011;53853;51.982;5.928;2022-10-16T09:12:10;4.68;;;2.08;;
66946;SDS011;53853;51.982;5.928;2022-10-16T09:14:50;6.18;;;3.08;;
66946;SDS011;53853;51.982;5.928;2022-10-16T09:17:30;8.32;;;2.50;;
66946;SDS011;53853;51.982;5.928;2022-10-16T09:20:26;4.88;;;2.20;;
66946;SDS011;53853;51.982;5.928;2022-10-16T09:23:16;5.85;;;2.22;;
66946;SDS011;53853;51.982;5.928;2022-10-16T09:25:48;4.72;;;2.00;;
66946;SDS011;53853;51.982;5.928;2022-10-16T09:28:23;4.85;;;1.85;;
66946;SDS011;53853;51.982;5.928;2022-10-16T09:30:53;6.25;;;2.60;;
66946;SDS011;53853;51.982;5.928;2022-10-16T09:33:24;7.38;;;2.67;;
66946;SDS011;53853;51.982;5.928;2022-10-16T09:36:00;4.35;;;2.05;;
66946;SDS011;53853;51.982;5.928;2022-10-16T09:38:33;9.52;;;3.13;;
66946;SDS011;53853;51.982;5.928;2022-10-16T09:41:11;7.45;;;2.50;;
66946;SDS011;53853;51.982;5.928;2022-10-16T09:43:49;6.15;;;2.22;;
66946;SDS011;53853;51.982;5.928;2022-10-16T09:46:25;7.47;;;3.08;;
66946;SDS011;53853;51.982;5.928;2022-10-16T09:48:57;6.20;;;1.95;;
66946;SDS011;53853;51.982;5.928;2022-10-16T09:51:32;6.05;;;2.17;;
66946;SDS011;53853;51.982;5.928;2022-10-16T09:54:13;8.13;;;2.22;;
66946;SDS011;53853;51.982;5.928;2022-10-16T09:56:44;10.88;;;2.40;;
66946;SDS011;53853;51.982;5.928;2022-10-16T09:59:20;8.90;;;2.45;;
66946;SDS011;53853;51.982;5.928;2022-10-16T10:04:37;8.68;;;2.35;;
66946;SDS011;53853;51.982;5.928;2022-10-16T10:07:19;6.07;;;2.58;;
66946;SDS011;53853;51.982;5.928;2022-10-16T10:09:53;6.47;;;2.38;;
66946;SDS011;53853;51.982;5.928;2022-10-16T10:12:26;4.55;;;1.88;;
66946;SDS011;53853;51.982;5.928;2022-10-16T10:14:58;6.05;;;1.98;;
66946;SDS011;53853;51.982;5.928;2022-10-16T10:17:44;10.05;;;2.67;;
66946;SDS011;53853;51.982;5.928;2022-10-16T10:20:22;7.03;;;2.28;;
66946;SDS011;53853;51.982;5.928;2022-10-16T10:22:56;6.68;;;2.22;;
66946;SDS011;53853;51.982;5.928;2022-10-16T10:25:36;9.07;;;3.17;;
66946;SDS011;53853;51.982;5.928;2022-10-16T10:31:17;6.20;;;2.15;;
66946;SDS011;53853;51.982;5.928;2022-10-16T10:33:56;7.18;;;2.20;;
66946;SDS011;53853;51.982;5.928;2022-10-16T10:36:34;7.53;;;2.50;;
66946;SDS011;53853;51.982;5.928;2022-10-16T10:39:08;8.52;;;2.28;;
66946;SDS011;53853;51.982;5.928;2022-10-16T10:41:53;8.30;;;2.72;;
66946;SDS011;53853;51.982;5.928;2022-10-16T10:44:37;8.98;;;2.45;;
66946;SDS011;53853;51.982;5.928;2022-10-16T10:47:26;8.38;;;3.03;;
66946;SDS011;53853;51.982;5.928;2022-10-16T10:50:06;9.40;;;2.55;;
66946;SDS011;53853;51.982;5.928;2022-10-16T10:52:43;9.00;;;2.40;;
66946;SDS011;53853;51.982;5.928;2022-10-16T10:55:26;11.98;;;3.40;;
66946;SDS011;53853;51.982;5.928;2022-10-16T10:58:10;6.82;;;2.38;;
66946;SDS011;53853;51.982;5.928;2022-10-16T11:00:56;10.35;;;2.75;;
66946;SDS011;53853;51.982;5.928;2022-10-16T11:03:36;8.65;;;2.83;;
66946;SDS011;53853;51.982;5.928;2022-10-16T11:06:34;8.57;;;2.67;;
66946;SDS011;53853;51.982;5.928;2022-10-16T11:09:09;8.73;;;2.58;;
66946;SDS011;53853;51.982;5.928;2022-10-16T11:11:46;9.25;;;3.22;;
66946;SDS011;53853;51.982;5.928;2022-10-16T11:14:21;8.30;;;1.80;;
66946;SDS011;53853;51.982;5.928;2022-10-16T11:16:58;11.45;;;2.90;;
66946;SDS011;53853;51.982;5.928;2022-10-16T11:19:33;10.82;;;2.45;;
66946;SDS011;53853;51.982;5.928;2022-10-16T11:22:10;5.88;;;1.98;;
66946;SDS011;53853;51.982;5.928;2022-10-16T11:24:45;8.95;;;2.40;;
66946;SDS011;53853;51.982;5.928;2022-10-16T11:27:27;8.77;;;2.38;;
66946;SDS011;53853;51.982;5.928;2022-10-16T11:30:18;9.25;;;2.58;;
66946;SDS011;53853;51.982;5.928;2022-10-16T11:33:10;15.52;;;3.42;;
66946;SDS011;53853;51.982;5.928;2022-10-16T11:36:08;8.70;;;2.65;;
66946;SDS011;53853;51.982;5.928;2022-10-16T11:38:43;9.38;;;2.47;;
66946;SDS011;53853;51.982;5.928;2022-10-16T11:41:22;7.50;;;2.38;;
66946;SDS011;53853;51.982;5.928;2022-10-16T11:44:09;11.93;;;3.40;;
66946;SDS011;53853;51.982;5.928;2022-10-16T11:46:50;9.60;;;2.90;;
66946;SDS011;53853;51.982;5.928;2022-10-16T11:49:26;10.05;;;2.67;;
66946;SDS011;53853;51.982;5.928;2022-10-16T11:52:03;8.15;;;2.00;;
66946;SDS011;53853;51.982;5.928;2022-10-16T11:54:41;10.15;;;3.22;;
66946;SDS011;53853;51.982;5.928;2022-10-16T11:57:17;9.85;;;2.95;;
66946;SDS011;53853;51.982;5.928;2022-10-16T11:59:54;7.47;;;2.08;;
66946;SDS011;53853;51.982;5.928;2022-10-16T12:02:40;10.27;;;2.38;;
66946;SDS011;53853;51.982;5.928;2022-10-16T12:05:19;10.18;;;2.17;;
66946;SDS011;53853;51.982;5.928;2022-10-16T12:08:00;8.77;;;2.50;;
66946;SDS011;53853;51.982;5.928;2022-10-16T12:10:37;11.35;;;3.17;;
66946;SDS011;53853;51.982;5.928;2022-10-16T12:16:19;12.85;;;3.03;;
66946;SDS011;53853;51.982;5.928;2022-10-16T12:19:02;6.78;;;2.22;;
66946;SDS011;53853;51.982;5.928;2022-10-16T12:21:40;8.63;;;2.40;;
66946;SDS011;53853;51.982;5.928;2022-10-16T12:27:01;7.90;;;2.53;;
66946;SDS011;53853;51.982;5.928;2022-10-16T12:29:34;7.72;;;2.00;;
66946;SDS011;53853;51.982;5.928;2022-10-16T12:32:27;4.97;;;1.77;;
66946;SDS011;53853;51.982;5.928;2022-10-16T12:35:02;11.48;;;2.40;;
66946;SDS011;53853;51.982;5.928;2022-10-16T12:37:34;8.68;;;2.47;;
66946;SDS011;53853;51.982;5.928;2022-10-16T12:40:11;11.10;;;2.40;;
66946;SDS011;53853;51.982;5.928;2022-10-16T12:42:43;9.45;;;2.28;;
66946;SDS011;53853;51.982;5.928;2022-10-16T12:45:22;10.02;;;1.95;;
66946;SDS011;53853;51.982;5.928;2022-10-16T12:47:59;10.20;;;2.40;;
66946;SDS011;53853;51.982;5.928;2022-10-16T12:50:31;9.35;;;2.47;;
66946;SDS011;53853;51.982;5.928;2022-10-16T12:53:03;9.90;;;3.75;;
66946;SDS011;53853;51.982;5.928;2022-10-16T12:55:48;9.73;;;3.05;;
66946;SDS011;53853;51.982;5.928;2022-10-16T12:58:32;10.98;;;2.45;;
66946;SDS011;53853;51.982;5.928;2022-10-16T13:01:22;6.90;;;1.92;;
66946;SDS011;53853;51.982;5.928;2022-10-16T13:07:10;9.18;;;2.80;;
66946;SDS011;53853;51.982;5.928;2022-10-16T13:09:53;10.25;;;2.70;;
66946;SDS011;53853;51.982;5.928;2022-10-16T13:15:47;8.32;;;2.40;;
66946;SDS011;53853;51.982;5.928;2022-10-16T13:18:29;8.27;;;3.10;;
66946;SDS011;53853;51.982;5.928;2022-10-16T13:21:20;8.90;;;2.30;;
66946;SDS011;53853;51.982;5.928;2022-10-16T13:23:59;13.98;;;2.42;;
66946;SDS011;53853;51.982;5.928;2022-10-16T13:26:40;9.27;;;2.28;;
66946;SDS011;53853;51.982;5.928;2022-10-16T13:29:17;9.18;;;2.17;;
66946;SDS011;53853;51.982;5.928;2022-10-16T13:31:48;10.57;;;3.22;;
66946;SDS011;53853;51.982;5.928;2022-10-16T13:34:19;7.63;;;2.10;;
66946;SDS011;53853;51.982;5.928;2022-10-16T13:36:53;7.05;;;2.67;;
66946;SDS011;53853;51.982;5.928;2022-10-16T13:39:23;9.00;;;3.03;;
66946;SDS011;53853;51.982;5.928;2022-10-16T13:41:58;6.57;;;2.00;;
66946;SDS011;53853;51.982;5.928;2022-10-16T13:44:35;11.73;;;2.67;;
66946;SDS011;53853;51.982;5.928;2022-10-16T13:47:15;6.60;;;1.92;;
66946;SDS011;53853;51.982;5.928;2022-10-16T13:49:46;9.48;;;2.85;;
66946;SDS011;53853;51.982;5.928;2022-10-16T13:52:29;9.25;;;2.20;;
66946;SDS011;53853;51.982;5.928;2022-10-16T13:54:59;8.43;;;2.53;;
66946;SDS011;53853;51.982;5.928;2022-10-16T13:57:29;7.55;;;2.85;;
66946;SDS011;53853;51.982;5.928;2022-10-16T13:59:59;8.55;;;2.53;;
66946;SDS011;53853;51.982;5.928;2022-10-16T14:02:31;8.23;;;2.00;;
66946;SDS011;53853;51.982;5.928;2022-10-16T14:05:04;7.80;;;2.67;;
66946;SDS011;53853;51.982;5.928;2022-10-16T14:07:41;7.88;;;2.50;;
66946;SDS011;53853;51.982;5.928;2022-10-16T14:10:18;8.65;;;2.28;;
66946;SDS011;53853;51.982;5.928;2022-10-16T14:12:55;6.20;;;1.95;;
66946;SDS011;53853;51.982;5.928;2022-10-16T14:15:26;9.10;;;2.67;;
66946;SDS011;53853;51.982;5.928;2022-10-16T14:17:57;10.55;;;2.80;;
66946;SDS011;53853;51.982;5.928;2022-10-16T14:20:29;5.15;;;2.33;;
66946;SDS011;53853;51.982;5.928;2022-10-16T14:23:03;7.25;;;2.15;;
66946;SDS011;53853;51.982;5.928;2022-10-16T14:25:47;5.38;;;2.25;;
66946;SDS011;53853;51.982;5.928;2022-10-16T14:28:18;6.85;;;1.92;;
66946;SDS011;53853;51.982;5.928;2022-10-16T14:30:50;3.90;;;1.30;;
66946;SDS011;53853;51.982;5.928;2022-10-16T14:33:23;4.93;;;1.42;;
66946;SDS011;53853;51.982;5.928;2022-10-16T14:36:01;7.68;;;1.85;;
66946;SDS011;53853;51.982;5.928;2022-10-16T14:41:06;6.50;;;1.67;;
66946;SDS011;53853;51.982;5.928;2022-10-16T14:43:37;6.72;;;2.33;;
66946;SDS011;53853;51.982;5.928;2022-10-16T14:46:12;9.68;;;2.70;;
66946;SDS011;53853;51.982;5.928;2022-10-16T14:48:45;11.90;;;2.22;;
66946;SDS011;53853;51.982;5.928;2022-10-16T14:51:17;8.20;;;2.45;;
66946;SDS011;53853;51.982;5.928;2022-10-16T14:53:51;5.10;;;1.65;;
66946;SDS011;53853;51.982;5.928;2022-10-16T14:56:21;4.15;;;1.23;;
66946;SDS011;53853;51.982;5.928;2022-10-16T14:58:53;4.82;;;1.40;;
66946;SDS011;53853;51.982;5.928;2022-10-16T15:01:23;5.55;;;1.40;;
66946;SDS011;53853;51.982;5.928;2022-10-16T15:03:53;5.28;;;1.38;;
66946;SDS011;53853;51.982;5.928;2022-10-16T15:06:23;2.65;;;1.00;;
66946;SDS011;53853;51.982;5.928;2022-10-16T15:08:55;4.57;;;1.48;;
66946;SDS011;53853;51.982;5.928;2022-10-16T15:11:25;3.35;;;1.35;;
66946;SDS011;53853;51.982;5.928;2022-10-16T15:13:55;3.58;;;1.50;;
66946;SDS011;53853;51.982;5.928;2022-10-16T15:16:25;6.07;;;1.45;;
66946;SDS011;53853;51.982;5.928;2022-10-16T15:18:55;3.70;;;1.10;;
66946;SDS011;53853;51.982;5.928;2022-10-16T15:21:25;2.45;;;0.93;;
66946;SDS011;53853;51.982;5.928;2022-10-16T15:24:00;2.33;;;1.15;;
66946;SDS011;53853;51.982;5.928;2022-10-16T15:26:30;4.03;;;1.20;;
66946;SDS011;53853;51.982;5.928;2022-10-16T15:28:59;3.67;;;1.13;;
66946;SDS011;53853;51.982;5.928;2022-10-16T15:31:29;6.22;;;1.75;;
66946;SDS011;53853;51.982;5.928;2022-10-16T15:33:59;3.08;;;1.23;;
66946;SDS011;53853;51.982;5.928;2022-10-16T15:36:30;5.45;;;1.35;;
66946;SDS011;53853;51.982;5.928;2022-10-16T15:39:05;2.17;;;0.90;;
66946;SDS011;53853;51.982;5.928;2022-10-16T15:41:40;4.13;;;1.83;;
66946;SDS011;53853;51.982;5.928;2022-10-16T15:44:11;7.22;;;2.65;;
66946;SDS011;53853;51.982;5.928;2022-10-16T15:46:41;4.70;;;2.70;;
66946;SDS011;53853;51.982;5.928;2022-10-16T15:49:11;4.80;;;2.05;;
66946;SDS011;53853;51.982;5.928;2022-10-16T15:51:41;3.90;;;1.98;;